Time;durP1;ratioP1;P1;durP2;ratioP2;P2;SDS_P1;SDS_P2;PMS_P1;PMS_P2;Temp;Humidity;BMP_temperature;BMP_pressure;BME280_temperature;BME280_humidity;BME280_pressure;Samples;Min_cycle;Max_cycle;Signal;HPM_P1;HPM_P2
2022/03/22 00:00:21;;;;;;;47.40;20.80;;;;;;;3.31;47.96;102197.43;104866;1274;59546;-76
2022/03/22 00:03:10;;;;;;;41.40;19.00;;;;;;;3.32;47.84;102196.70;104962;1274;71015;-75
2022/03/22 00:05:58;;;;;;;39.00;18.20;;;;;;;3.30;47.90;102197.27;104817;1274;68266;-75
2022/03/22 00:08:47;;;;;;;37.00;18.30;;;;;;;3.28;47.96;102194.50;105081;1274;71531;-75
2022/03/22 00:11:36;;;;;;;42.70;20.00;;;;;;;3.25;48.11;102193.13;104851;1274;59468;-75
2022/03/22 00:14:25;;;;;;;44.90;21.80;;;;;;;3.21;47.98;102191.26;104823;1274;60733;-75
2022/03/22 00:17:33;;;;;;;44.80;19.70;;;;;;;3.16;48.30;102191.67;105056;1274;70167;-74
2022/03/22 00:20:23;;;;;;;42.10;19.20;;;;;;;3.14;48.41;102197.48;105043;1274;68175;-75
2022/03/22 00:23:13;;;;;;;40.90;20.10;;;;;;;3.09;48.49;102195.43;104788;1274;71928;-75
2022/03/22 00:26:03;;;;;;;44.30;20.80;;;;;;;3.06;48.42;102195.48;104705;1274;59376;-75
2022/03/22 00:28:51;;;;;;;43.90;20.20;;;;;;;3.02;48.44;102198.31;105093;1274;59394;-73
2022/03/22 00:31:41;;;;;;;38.50;18.20;;;;;;;2.99;48.50;102196.27;105080;1274;70619;-74
2022/03/22 00:34:30;;;;;;;38.90;17.60;;;;;;;3.00;47.98;102193.97;104665;1273;68016;-74
2022/03/22 00:37:18;;;;;;;35.20;16.30;;;;;;;3.04;47.88;102195.13;104736;1273;73030;-74
2022/03/22 00:40:11;;;;;;;38.30;18.50;;;;;;;3.05;47.73;102194.80;104659;1273;59317;-74
2022/03/22 00:43:03;;;;;;;34.30;17.10;;;;;;;3.04;47.73;102198.81;104917;1273;60474;-74
2022/03/22 00:45:51;;;;;;;40.50;18.10;;;;;;;3.02;47.77;102197.45;104676;1273;71722;-74
2022/03/22 00:48:40;;;;;;;39.10;18.00;;;;;;;2.98;47.74;102196.80;104936;1273;66776;-74
2022/03/22 00:51:30;;;;;;;37.80;17.50;;;;;;;2.92;48.19;102194.60;104810;1273;73096;-75
2022/03/22 00:54:19;;;;;;;35.80;16.50;;;;;;;2.88;47.87;102191.13;104793;1273;59336;-76
2022/03/22 00:57:10;;;;;;;36.10;16.10;;;;;;;2.87;47.78;102193.06;104644;1273;60808;-75
2022/03/22 01:00:03;;;;;;;37.40;17.20;;;;;;;2.87;47.55;102193.77;104554;1273;70531;-76
2022/03/22 01:02:58;;;;;;;39.20;17.80;;;;;;;2.86;47.65;102186.60;104631;1273;67330;-75
2022/03/22 01:05:52;;;;;;;36.80;15.40;;;;;;;2.80;47.80;102190.52;104570;1273;73102;-76
2022/03/22 01:08:40;;;;;;;32.80;14.90;;;;;;;2.77;48.11;102190.21;104597;1273;59615;-76
2022/03/22 01:11:28;;;;;;;39.30;17.20;;;;;;;2.73;48.14;102187.98;104906;1273;59894;-76
2022/03/22 01:14:18;;;;;;;32.40;15.30;;;;;;;2.69;48.41;102185.38;104511;1273;70897;-76
2022/03/22 01:17:06;;;;;;;40.50;17.70;;;;;;;2.65;48.38;102179.45;104743;1274;67116;-76
2022/03/22 01:19:56;;;;;;;41.70;17.20;;;;;;;2.62;48.29;102183.35;103916;1273;1003742;-74
2022/03/22 01:22:47;;;;;;;39.30;16.80;;;;;;;2.58;48.56;102182.69;104617;1273;59397;-74
2022/03/22 01:25:37;;;;;;;37.20;17.30;;;;;;;2.56;48.67;102185.52;104816;1273;60795;-74
2022/03/22 01:28:27;;;;;;;37.80;16.20;;;;;;;2.56;48.70;102184.83;104672;1273;71847;-74
2022/03/22 01:31:15;;;;;;;38.40;16.40;;;;;;;2.57;48.68;102183.94;104540;1273;68121;-73
2022/03/22 01:34:05;;;;;;;34.30;16.30;;;;;;;2.54;48.61;102181.86;104545;1273;72971;-73
2022/03/22 01:36:53;;;;;;;36.30;16.60;;;;;;;2.53;48.71;102180.30;103989;1276;1002958;-73
2022/03/22 01:39:42;;;;;;;33.90;16.00;;;;;;;2.52;48.60;102184.33;104620;1273;59829;-73
2022/03/22 01:42:31;;;;;;;37.20;16.20;;;;;;;2.52;48.39;102183.63;104549;1273;72593;-74
2022/03/22 01:45:20;;;;;;;37.40;17.20;;;;;;;2.55;48.47;102182.54;104580;1273;67911;-74
2022/03/22 01:48:13;;;;;;;40.10;17.80;;;;;;;2.55;48.35;102183.08;104800;1273;73146;-73
2022/03/22 01:51:02;;;;;;;41.50;17.70;;;;;;;2.51;48.76;102187.66;104589;1273;60496;-75
2022/03/22 01:53:51;;;;;;;35.40;17.30;;;;;;;2.52;48.46;102180.84;104636;1273;61039;-75
2022/03/22 01:56:40;;;;;;;34.70;14.70;;;;;;;2.52;48.45;102182.92;104582;1273;71416;-75
2022/03/22 01:59:28;;;;;;;33.20;15.20;;;;;;;2.53;48.40;102179.77;104555;1273;67253;-75
2022/03/22 02:08:38;;;;;;;34.00;15.50;;;;;;;2.64;47.82;102174.40;104646;1273;63106;-75
2022/03/22 02:11:28;;;;;;;34.20;14.70;;;;;;;2.67;47.64;102172.61;104565;1273;71290;-75
2022/03/22 02:14:16;;;;;;;29.50;13.80;;;;;;;2.70;47.48;102170.99;104620;1273;66219;-73
2022/03/22 02:17:09;;;;;;;29.40;14.40;;;;;;;2.75;47.42;102171.80;104611;1273;72431;-73
2022/03/22 02:19:59;;;;;;;28.90;12.90;;;;;;;2.81;47.07;102170.52;104652;1273;59311;-72
2022/03/22 02:22:52;;;;;;;30.80;14.00;;;;;;;2.87;46.85;102168.52;104796;1273;59371;-72
2022/03/22 02:25:41;;;;;;;34.50;14.20;;;;;;;2.93;46.60;102171.61;103985;1273;1015932;-73
2022/03/22 02:28:29;;;;;;;30.80;13.40;;;;;;;2.94;46.70;102169.48;103919;1273;1003081;-74
2022/03/22 02:31:28;;;;;;;34.90;14.00;;;;;;;2.93;46.67;102170.38;104822;1273;73272;-74
2022/03/22 02:34:18;;;;;;;30.80;13.50;;;;;;;2.94;46.73;102170.38;104862;1273;59347;-73
2022/03/22 02:37:07;;;;;;;35.20;15.30;;;;;;;2.92;46.74;102169.34;104652;1273;61073;-74
2022/03/22 02:39:56;;;;;;;29.00;13.60;;;;;;;2.87;46.95;102170.98;104795;1272;71432;-74
2022/03/22 02:42:54;;;;;;;30.20;13.50;;;;;;;2.83;47.16;102170.33;104605;1273;68542;-74
2022/03/22 02:45:42;;;;;;;32.30;13.70;;;;;;;2.79;46.88;102169.31;104709;1273;73245;-75
2022/03/22 02:48:31;;;;;;;31.20;14.00;;;;;;;2.77;47.06;102165.84;104670;1273;59327;-74
2022/03/22 02:51:20;;;;;;;32.10;14.10;;;;;;;2.73;47.05;102166.74;104615;1273;60272;-74
2022/03/22 02:54:09;;;;;;;28.20;13.50;;;;;;;2.70;47.15;102164.51;104690;1273;72510;-75
2022/03/22 02:56:58;;;;;;;34.20;13.80;;;;;;;2.70;47.07;102166.44;104726;1273;68434;-75
2022/03/22 02:59:47;;;;;;;30.60;13.60;;;;;;;2.70;46.87;102165.37;104609;1273;71904;-75
2022/03/22 03:02:44;;;;;;;30.90;13.80;;;;;;;2.77;46.63;102164.96;104555;1273;59420;-75
2022/03/22 03:05:33;;;;;;;28.40;12.80;;;;;;;2.80;46.43;102165.96;104623;1273;59378;-74
2022/03/22 03:08:26;;;;;;;32.80;15.20;;;;;;;2.78;46.56;102160.55;103972;1273;1003651;-74
2022/03/22 03:11:15;;;;;;;29.20;12.70;;;;;;;2.76;46.81;102165.84;104556;1273;67349;-74
2022/03/22 03:17:13;;;;;;;32.10;14.50;;;;;;;2.63;47.31;102169.15;104632;1273;59319;-74
2022/03/22 03:20:07;;;;;;;30.70;13.70;;;;;;;2.57;47.17;102170.26;104613;1273;59394;-74
2022/03/22 03:22:57;;;;;;;30.60;13.80;;;;;;;2.54;47.25;102171.52;104828;1273;72607;-72
2022/03/22 03:25:45;;;;;;;30.20;13.50;;;;;;;2.52;47.26;102171.00;104631;1273;68372;-73
2022/03/22 03:28:34;;;;;;;25.40;12.40;;;;;;;2.51;47.16;102167.86;104606;1273;71875;-74
2022/03/22 03:31:26;;;;;;;29.00;13.00;;;;;;;2.55;47.19;102166.09;104598;1273;59385;-73
2022/03/22 03:34:15;;;;;;;27.30;12.10;;;;;;;2.60;46.99;102165.85;104663;1274;60279;-72
2022/03/22 03:37:07;;;;;;;30.90;13.00;;;;;;;2.64;46.96;102167.56;104626;1273;72383;-73
2022/03/22 03:39:56;;;;;;;30.30;12.80;;;;;;;2.67;46.84;102166.82;104652;1273;68428;-72
2022/03/22 03:42:45;;;;;;;27.00;12.60;;;;;;;2.68;46.78;102168.04;104018;1273;1003008;-73
2022/03/22 03:48:42;;;;;;;27.70;12.90;;;;;;;2.72;46.61;102162.91;104971;1273;60708;-73
2022/03/22 03:51:32;;;;;;;28.00;13.10;;;;;;;2.73;46.54;102166.05;104632;1273;70382;-74
2022/03/22 03:54:20;;;;;;;26.40;11.70;;;;;;;2.73;46.56;102166.41;104725;1273;67183;-72
2022/03/22 03:57:10;;;;;;;28.80;13.00;;;;;;;2.71;46.56;102163.80;104755;1273;71710;-72
2022/03/22 03:59:58;;;;;;;26.80;12.70;;;;;;;2.70;46.68;102163.45;104857;1273;59325;-73
2022/03/22 04:02:47;;;;;;;31.10;13.90;;;;;;;2.71;46.85;102165.02;104647;1273;59675;-75
2022/03/22 04:05:36;;;;;;;29.30;12.60;;;;;;;2.69;46.93;102168.20;104616;1273;72685;-76
2022/03/22 04:08:30;;;;;;;28.90;13.60;;;;;;;2.68;46.98;102164.53;104625;1273;68209;-75
2022/03/22 04:11:20;;;;;;;25.40;12.10;;;;;;;2.65;47.07;102164.92;104857;1273;73110;-75
2022/03/22 04:14:08;;;;;;;30.60;12.90;;;;;;;2.61;47.16;102160.76;104500;1273;59302;-75
2022/03/22 04:16:57;;;;;;;30.10;13.80;;;;;;;2.56;47.43;102158.18;104803;1273;59872;-76
2022/03/22 04:19:46;;;;;;;31.10;14.10;;;;;;;2.50;47.61;102161.05;104845;1273;70937;-75
2022/03/22 04:22:36;;;;;;;33.10;12.80;;;;;;;2.46;47.62;102159.33;104557;1273;66780;-75
2022/03/22 04:25:25;;;;;;;24.00;12.60;;;;;;;2.45;47.87;102158.30;104545;1273;71682;-72
2022/03/22 04:34:28;;;;;;;30.80;13.90;;;;;;;2.43;48.35;102159.02;104835;1273;72537;-74
2022/03/22 04:37:16;;;;;;;31.20;13.50;;;;;;;2.35;48.31;102153.67;104615;1273;66936;-75
2022/03/22 04:40:07;;;;;;;25.30;12.40;;;;;;;2.35;48.56;102158.05;104501;1273;72312;-74
2022/03/22 04:42:56;;;;;;;25.70;12.40;;;;;;;2.33;48.62;102155.80;104565;1273;59331;-73
2022/03/22 04:45:44;;;;;;;28.20;12.60;;;;;;;2.34;48.75;102158.75;104611;1273;59353;-74
2022/03/22 04:48:33;;;;;;;26.30;12.50;;;;;;;2.35;48.84;102157.70;104702;1273;71331;-75
2022/03/22 04:57:39;;;;;;;32.60;13.70;;;;;;;2.30;49.15;102157.40;104679;1273;59315;-75
2022/03/22 05:00:28;;;;;;;27.40;12.50;;;;;;;2.35;49.18;102161.71;105285;1274;59983;-76
2022/03/22 05:03:17;;;;;;;26.40;12.60;;;;;;;2.42;49.17;102159.73;104866;1273;72935;-74
2022/03/22 05:09:13;;;;;;;33.50;14.20;;;;;;;2.58;48.75;102159.56;104409;1274;1003068;-76
2022/03/22 05:12:03;;;;;;;32.10;13.80;;;;;;;2.66;48.68;102156.66;105226;1274;59300;-76
2022/03/22 05:14:52;;;;;;;31.50;13.70;;;;;;;2.72;48.41;102156.96;104940;1274;60672;-74
2022/03/22 05:17:42;;;;;;;28.10;13.30;;;;;;;2.75;48.57;102161.29;105116;1273;71766;-74
2022/03/22 05:20:31;;;;;;;32.10;14.20;;;;;;;2.78;48.23;102159.52;104729;1273;68461;-74
2022/03/22 05:23:21;;;;;;;34.60;16.20;;;;;;;2.81;48.27;102161.92;104882;1274;73261;-73
2022/03/22 05:26:10;;;;;;;37.40;14.30;;;;;;;2.85;47.99;102159.61;104965;1274;59436;-73
2022/03/22 05:28:58;;;;;;;32.50;15.90;;;;;;;2.91;47.96;102160.59;104790;1273;59816;-73
2022/03/22 05:31:47;;;;;;;32.40;15.40;;;;;;;2.96;47.78;102156.84;105018;1274;70961;-72
2022/03/22 05:34:35;;;;;;;32.90;14.30;;;;;;;3.03;47.67;102156.06;104802;1273;66967;-73
2022/03/22 05:37:24;;;;;;;32.70;15.50;;;;;;;3.09;47.42;102153.52;104753;1274;70829;-73
2022/03/22 05:40:16;;;;;;;36.90;15.50;;;;;;;3.16;47.23;102156.94;103870;1274;1003409;-73
2022/03/22 05:43:04;;;;;;;31.50;15.30;;;;;;;3.22;47.10;102151.42;104927;1274;60364;-73
2022/03/22 05:45:55;;;;;;;35.70;16.10;;;;;;;3.30;47.05;102154.11;104981;1273;72394;-75
2022/03/22 05:48:48;;;;;;;32.30;16.00;;;;;;;3.38;46.96;102154.52;104738;1274;68092;-74
2022/03/22 05:51:36;;;;;;;32.90;14.50;;;;;;;3.47;46.78;102155.45;105243;1274;71915;-73
2022/03/22 05:54:25;;;;;;;35.80;16.70;;;;;;;3.56;46.37;102152.50;103972;1274;1002993;-75
2022/03/22 05:57:14;;;;;;;35.80;16.00;;;;;;;3.65;46.23;102155.52;104702;1273;60694;-75
2022/03/22 06:00:06;;;;;;;34.70;15.70;;;;;;;3.76;45.91;102155.88;105018;1273;72492;-76
2022/03/22 06:02:55;;;;;;;35.70;17.00;;;;;;;3.88;45.64;102157.61;104783;1273;68443;-74
2022/03/22 06:05:43;;;;;;;34.30;16.60;;;;;;;4.01;45.30;102153.89;104881;1273;72930;-75
2022/03/22 06:08:35;;;;;;;37.30;17.40;;;;;;;4.15;45.04;102159.46;104725;1273;59410;-74
2022/03/22 06:11:26;;;;;;;39.50;17.60;;;;;;;4.27;44.87;102156.79;104756;1273;59936;-73
2022/03/22 06:14:14;;;;;;;38.30;17.90;;;;;;;4.38;44.50;102156.05;104794;1273;72754;-76
2022/03/22 06:17:03;;;;;;;38.40;17.60;;;;;;;4.50;44.14;102156.19;104733;1273;67026;-75
2022/03/22 06:19:52;;;;;;;36.70;15.90;;;;;;;4.61;44.12;102157.04;104855;1273;72953;-76
2022/03/22 06:22:45;;;;;;;37.50;16.80;;;;;;;4.72;43.87;102157.67;104710;1273;59305;-77
2022/03/22 06:25:35;;;;;;;37.70;18.30;;;;;;;4.83;43.53;102156.41;105137;1273;60426;-76
2022/03/22 06:28:23;;;;;;;35.40;17.30;;;;;;;4.94;43.34;102145.64;104964;1273;72500;-76
2022/03/22 06:31:11;;;;;;;39.10;18.00;;;;;;;5.04;42.98;102150.70;104672;1273;68069;-76
2022/03/22 06:34:04;;;;;;;38.00;18.90;;;;;;;5.17;42.64;102148.50;104789;1273;73215;-75
2022/03/22 06:36:53;;;;;;;43.60;19.70;;;;;;;5.29;42.09;102149.81;105107;1273;59196;-75
2022/03/22 06:39:44;;;;;;;41.30;19.90;;;;;;;5.43;42.35;102146.15;104700;1273;59657;-76
2022/03/22 06:42:33;;;;;;;42.60;20.60;;;;;;;5.59;41.96;102145.25;104711;1273;71522;-75
2022/03/22 06:45:22;;;;;;;39.10;19.10;;;;;;;5.78;41.64;102147.45;104654;1273;68295;-76
2022/03/22 06:48:12;;;;;;;43.10;20.50;;;;;;;6.18;40.86;102143.98;105076;1273;72939;-77
2022/03/22 06:51:00;;;;;;;38.90;19.60;;;;;;;6.86;39.78;102149.02;104772;1273;59424;-75
2022/03/22 06:53:49;;;;;;;47.40;20.60;;;;;;;6.96;39.32;102148.20;104768;1273;61119;-77
2022/03/22 06:56:39;;;;;;;39.60;20.00;;;;;;;7.13;38.38;102149.98;104727;1273;71302;-75
2022/03/22 06:59:28;;;;;;;43.10;21.80;;;;;;;7.72;37.69;102149.01;105008;1273;66005;-77
2022/03/22 07:02:18;;;;;;;40.80;21.70;;;;;;;9.43;35.42;102148.04;104719;1273;73074;-77
2022/03/22 07:05:11;;;;;;;43.70;22.90;;;;;;;11.54;31.75;102137.69;104896;1273;59363;-76
2022/03/22 07:08:01;;;;;;;40.50;20.60;;;;;;;13.43;28.91;102134.95;105119;1273;59307;-78
2022/03/22 07:11:49;;;;;;;38.40;20.20;;;;;;;14.90;26.01;102128.00;105229;1274;72444;-76
2022/03/22 07:14:03;;;;;;;37.10;21.40;;;;;;;15.93;23.94;102128.16;105123;1273;68150;-77
2022/03/22 07:17:00;;;;;;;39.60;21.00;;;;;;;16.86;23.56;102125.30;104812;1273;72730;-77
2022/03/22 07:19:53;;;;;;;42.80;20.30;;;;;;;17.71;22.04;102117.48;104992;1274;59432;-78
2022/03/22 07:22:48;;;;;;;37.20;20.70;;;;;;;18.41;21.06;102115.55;105150;1274;59334;-78
2022/03/22 07:25:40;;;;;;;36.70;19.70;;;;;;;18.75;20.19;102114.62;104996;1274;72333;-76
2022/03/22 07:28:43;;;;;;;33.70;19.90;;;;;;;18.89;19.89;102110.85;105102;1274;67281;-77
2022/03/22 07:31:39;;;;;;;34.70;18.70;;;;;;;19.44;19.64;102110.03;105226;1274;72947;-76
2022/03/22 07:34:38;;;;;;;45.00;20.10;;;;;;;19.93;18.76;102109.36;104896;1274;59761;-78
2022/03/22 07:37:29;;;;;;;39.40;19.00;;;;;;;20.38;18.19;102104.96;105043;1274;59456;-78
2022/03/22 07:40:19;;;;;;;30.50;17.90;;;;;;;20.80;17.98;102109.39;104941;1274;72491;-77
2022/03/22 07:43:07;;;;;;;36.50;20.50;;;;;;;20.85;17.60;102109.90;104864;1274;68154;-78
2022/03/22 07:45:56;;;;;;;33.00;18.10;;;;;;;20.70;17.19;102107.75;104999;1274;73096;-77
2022/03/22 07:48:45;;;;;;;37.80;20.90;;;;;;;20.91;17.68;102107.30;105148;1274;59193;-76
2022/03/22 07:54:43;;;;;;;37.60;20.70;;;;;;;22.06;17.17;102103.53;105026;1273;72568;-76
2022/03/22 07:57:31;;;;;;;35.60;21.00;;;;;;;22.36;16.65;102103.39;104949;1273;66519;-78
2022/03/22 08:00:21;;;;;;;36.10;20.60;;;;;;;22.39;16.14;102102.24;104871;1274;72885;-77
2022/03/22 08:03:18;;;;;;;40.00;21.50;;;;;;;21.79;16.14;102101.19;105116;1274;59391;-77
2022/03/22 08:06:09;;;;;;;36.10;21.60;;;;;;;21.45;16.65;102102.66;104928;1273;59471;-74
2022/03/22 08:08:57;;;;;;;46.40;22.00;;;;;;;21.61;16.81;102099.03;105031;1274;72685;-75
2022/03/22 08:11:46;;;;;;;41.90;20.60;;;;;;;21.78;16.77;102100.40;105124;1274;67008;-78
2022/03/22 08:14:38;;;;;;;52.50;22.40;;;;;;;22.00;16.48;102101.44;105130;1274;72805;-75
2022/03/22 08:17:27;;;;;;;38.30;19.80;;;;;;;22.16;15.95;102099.48;104798;1274;59480;-75
2022/03/22 08:20:16;;;;;;;44.90;21.70;;;;;;;22.13;15.84;102094.23;104780;1274;60244;-75
2022/03/22 08:23:06;;;;;;;41.10;20.60;;;;;;;22.42;15.92;102095.27;104575;1274;71471;-74
2022/03/22 08:25:54;;;;;;;45.30;20.90;;;;;;;22.84;15.87;102088.67;105109;1274;66813;-75
2022/03/22 08:28:43;;;;;;;35.70;18.80;;;;;;;23.08;15.41;102085.41;104946;1274;72835;-74
2022/03/22 08:31:32;;;;;;;41.10;20.00;;;;;;;23.02;15.41;102089.26;104801;1274;59405;-75
2022/03/22 08:34:20;;;;;;;38.40;19.90;;;;;;;23.52;15.54;102083.73;105036;1274;59592;-74
2022/03/22 08:37:08;;;;;;;39.90;19.60;;;;;;;24.21;15.13;102085.00;104928;1274;70970;-75
2022/03/22 08:40:00;;;;;;;32.80;19.60;;;;;;;24.78;14.66;102085.75;105056;1273;67126;-75
2022/03/22 08:42:52;;;;;;;34.20;18.90;;;;;;;24.96;14.03;102081.88;104931;1274;72641;-75
2022/03/22 08:45:40;;;;;;;40.20;18.90;;;;;;;25.05;13.64;102077.46;104881;1273;59307;-75
2022/03/22 08:48:31;;;;;;;39.90;19.40;;;;;;;25.46;13.72;102076.34;104710;1275;60786;-75
2022/03/22 08:51:24;;;;;;;38.90;18.90;;;;;;;25.73;13.28;102072.66;104835;1273;72528;-75
2022/03/22 08:54:12;;;;;;;34.40;18.30;;;;;;;26.07;13.06;102075.96;104752;1275;67035;-74
2022/03/22 08:57:01;;;;;;;36.40;19.80;;;;;;;26.03;13.20;102072.77;104728;1273;71911;-75
2022/03/22 08:59:49;;;;;;;37.80;18.00;;;;;;;26.27;13.09;102071.27;104761;1276;59433;-76
2022/03/22 09:02:41;;;;;;;29.80;17.40;;;;;;;26.72;12.45;102068.90;104663;1273;482300;-76
2022/03/22 09:08:42;;;;;;;27.10;15.10;;;;;;;27.29;11.85;102063.09;104942;1275;65742;-75
2022/03/22 09:11:36;;;;;;;25.50;14.60;;;;;;;27.29;12.03;102059.93;104904;1273;72054;-76
2022/03/22 09:14:25;;;;;;;23.80;14.30;;;;;;;27.29;11.54;102057.89;105469;1274;59298;-76
2022/03/22 09:17:13;;;;;;;26.80;14.40;;;;;;;27.36;11.35;102051.70;105279;1274;60534;-75
2022/03/22 09:20:02;;;;;;;24.80;14.20;;;;;;;27.40;11.55;102052.46;104934;1274;72895;-75
2022/03/22 09:22:52;;;;;;;28.70;15.40;;;;;;;27.74;11.64;102048.11;104763;1274;68155;-76
2022/03/22 09:25:42;;;;;;;25.50;15.20;;;;;;;27.96;11.25;102053.85;104903;1274;71587;-75
2022/03/22 09:28:30;;;;;;;31.50;15.40;;;;;;;28.02;11.01;102050.35;104843;1274;59377;-77
2022/03/22 09:31:22;;;;;;;26.50;15.40;;;;;;;27.84;11.11;102045.96;104656;1274;59518;-77
2022/03/22 09:34:12;;;;;;;28.60;13.80;;;;;;;27.20;11.10;102044.63;104747;1274;72582;-76
2022/03/22 09:37:00;;;;;;;24.80;14.40;;;;;;;27.10;11.16;102042.56;104749;1274;68178;-76
2022/03/22 09:39:49;;;;;;;25.00;14.00;;;;;;;26.94;11.32;102036.05;104871;1274;71361;-77
2022/03/22 09:42:42;;;;;;;21.20;13.60;;;;;;;26.87;11.22;102035.41;104702;1274;59862;-77
2022/03/22 09:45:33;;;;;;;22.70;13.60;;;;;;;26.74;11.51;102037.21;104979;1274;60783;-78
2022/03/22 09:48:22;;;;;;;21.80;13.50;;;;;;;27.02;11.30;102028.50;104819;1274;71067;-78
2022/03/22 09:54:25;;;;;;;21.70;12.60;;;;;;;27.74;10.69;102027.25;105496;1273;73377;-77
2022/03/22 09:57:14;;;;;;;22.80;11.70;;;;;;;27.68;10.37;102024.20;105406;1274;59287;-77
2022/03/22 10:00:09;;;;;;;21.10;12.90;;;;;;;27.89;10.41;102024.45;104956;1274;60559;-80
2022/03/22 10:03:01;;;;;;;21.40;11.60;;;;;;;28.22;10.11;102014.38;105158;1274;72794;-78
2022/03/22 10:06:03;;;;;;;19.40;12.40;;;;;;;28.71;9.80;102018.33;104826;1274;68310;-77
2022/03/22 10:08:55;;;;;;;17.30;11.20;;;;;;;28.80;9.49;102016.02;104963;1274;71404;-74
2022/03/22 10:11:50;;;;;;;18.20;11.20;;;;;;;28.51;9.37;102012.41;104877;1274;59342;-76
2022/03/22 10:14:42;;;;;;;18.70;11.20;;;;;;;28.66;9.53;102009.52;104922;1274;60518;-76
2022/03/22 10:17:31;;;;;;;17.70;10.60;;;;;;;28.95;9.31;102000.25;104829;1273;72650;-77
2022/03/22 10:20:29;;;;;;;18.40;10.50;;;;;;;29.48;9.04;101996.77;104900;1273;69167;-77
2022/03/22 10:23:19;;;;;;;20.60;10.00;;;;;;;30.13;8.88;101988.64;104860;1274;72064;-77
2022/03/22 10:26:09;;;;;;;18.00;10.00;;;;;;;30.43;8.36;101991.20;104975;1275;59472;-76
2022/03/22 10:28:58;;;;;;;17.00;9.40;;;;;;;30.06;8.44;101986.00;104883;1274;60943;-78
2022/03/22 10:31:50;;;;;;;16.80;9.00;;;;;;;29.51;8.38;101982.89;104863;1275;70896;-77
2022/03/22 10:34:38;;;;;;;16.30;8.10;;;;;;;29.80;8.44;101980.63;104637;1276;66550;-78
2022/03/22 10:37:27;;;;;;;14.50;8.70;;;;;;;29.45;8.36;101976.99;104532;1277;73239;-78
2022/03/22 10:40:41;;;;;;;14.40;9.30;;;;;;;29.09;8.47;101977.46;104575;1277;59511;-77
2022/03/22 10:43:32;;;;;;;15.80;10.00;;;;;;;28.97;8.54;101972.11;104975;1276;60477;-78
2022/03/22 10:46:27;;;;;;;15.60;9.50;;;;;;;28.26;8.85;101976.88;104864;1277;73125;-77
2022/03/22 10:49:19;;;;;;;15.70;8.90;;;;;;;28.22;8.81;101975.86;104876;1277;67275;-77
2022/03/22 10:52:30;;;;;;;15.50;9.30;;;;;;;28.32;8.85;101971.36;104605;1277;71969;-77
2022/03/22 10:55:22;;;;;;;16.90;9.10;;;;;;;28.23;8.97;101965.35;104603;1277;59268;-77
2022/03/22 10:58:14;;;;;;;19.90;10.10;;;;;;;27.79;9.03;101958.41;104635;1277;59407;-76
2022/03/22 11:01:06;;;;;;;18.60;9.10;;;;;;;27.49;9.16;101956.94;104817;1276;71222;-77
2022/03/22 11:03:57;;;;;;;16.60;9.10;;;;;;;27.13;9.42;101952.83;104753;1273;67948;-76
2022/03/22 11:06:47;;;;;;;15.20;8.30;;;;;;;26.37;9.74;101950.66;104828;1274;72917;-76
2022/03/22 11:09:36;;;;;;;14.20;8.50;;;;;;;26.41;9.82;101953.80;104880;1271;59241;-76
2022/03/22 11:12:27;;;;;;;17.70;9.60;;;;;;;26.14;9.84;101947.69;105000;1273;59391;-77
2022/03/22 11:15:15;;;;;;;17.70;9.10;;;;;;;25.95;10.10;101943.80;105007;1273;72843;-77
2022/03/22 11:18:07;;;;;;;16.40;9.30;;;;;;;25.77;10.52;101939.86;105106;1273;67238;-77
2022/03/22 11:21:03;;;;;;;15.10;9.20;;;;;;;25.25;10.33;101945.08;104845;1273;71675;-78
2022/03/22 11:24:07;;;;;;;17.60;8.30;;;;;;;25.18;10.44;101939.66;104874;1273;59401;-77
2022/03/22 11:27:06;;;;;;;14.60;9.30;;;;;;;24.68;10.54;101940.40;105257;1273;60246;-78
2022/03/22 11:29:56;;;;;;;13.60;9.10;;;;;;;24.39;10.86;101932.41;104923;1274;72496;-79
2022/03/22 11:35:58;;;;;;;16.50;9.70;;;;;;;25.28;10.83;101923.48;105021;1274;73054;-78
2022/03/22 11:38:52;;;;;;;15.50;9.20;;;;;;;25.24;10.92;101919.70;104830;1273;59430;-79
2022/03/22 11:45:03;;;;;;;17.40;9.60;;;;;;;24.69;11.06;101914.31;104922;1273;70402;-78
2022/03/22 11:47:53;;;;;;;18.80;9.50;;;;;;;23.75;11.69;101915.83;105240;1273;67179;-77
2022/03/22 11:50:46;;;;;;;16.70;9.40;;;;;;;23.39;11.89;101914.27;105243;1273;70805;-79
2022/03/22 11:53:45;;;;;;;20.00;11.10;;;;;;;23.42;12.00;101910.19;104827;1273;59405;-78
2022/03/22 11:56:33;;;;;;;21.60;9.90;;;;;;;23.23;12.07;101903.30;104852;1273;59882;-77
2022/03/22 11:59:23;;;;;;;17.80;10.00;;;;;;;23.37;12.17;101899.44;104993;1273;72902;-76
2022/03/22 12:02:18;;;;;;;18.80;10.20;;;;;;;23.43;12.07;101900.24;104832;1270;68293;-76
2022/03/22 12:05:07;;;;;;;20.50;10.70;;;;;;;22.90;12.47;101892.82;104856;1273;73599;-76
2022/03/22 12:08:13;;;;;;;20.00;11.70;;;;;;;22.83;12.80;101895.48;105123;1273;59350;-77
2022/03/22 12:11:02;;;;;;;18.50;11.30;;;;;;;22.43;13.08;101887.78;105143;1273;60227;-76
2022/03/22 12:13:50;;;;;;;19.10;11.10;;;;;;;22.22;13.22;101884.16;104735;1273;72409;-76
2022/03/22 12:16:39;;;;;;;19.70;11.60;;;;;;;22.23;13.23;101883.55;104934;1273;68416;-76
2022/03/22 12:19:31;;;;;;;19.20;11.50;;;;;;;21.82;13.12;101876.38;105017;1274;71697;-75
2022/03/22 12:22:25;;;;;;;20.30;11.90;;;;;;;21.63;13.09;101873.08;104944;1273;59270;-76
2022/03/22 12:25:17;;;;;;;19.70;11.50;;;;;;;21.45;13.35;101870.16;104984;1273;59426;-75
2022/03/22 12:28:09;;;;;;;19.70;11.90;;;;;;;21.12;14.16;101870.30;104985;1273;71505;-74
2022/03/22 12:31:01;;;;;;;19.60;11.40;;;;;;;20.69;14.46;101864.90;105001;1273;68355;-74
2022/03/22 12:33:51;;;;;;;20.50;11.00;;;;;;;20.40;15.05;101857.52;104995;1274;71910;-75
2022/03/22 12:36:41;;;;;;;20.20;11.30;;;;;;;19.89;14.92;101851.93;104865;1274;59386;-75
2022/03/22 12:39:28;;;;;;;19.20;10.10;;;;;;;19.45;15.31;101845.52;104953;1273;60399;-75
2022/03/22 12:42:18;;;;;;;20.00;9.70;;;;;;;19.14;15.59;101857.94;104861;1273;70171;-75
2022/03/22 12:45:07;;;;;;;15.70;8.90;;;;;;;18.64;14.90;101849.90;105084;1274;68706;-75
2022/03/22 12:48:00;;;;;;;17.30;9.20;;;;;;;18.31;15.70;101850.64;105288;1274;75224;-75
2022/03/22 12:50:50;;;;;;;19.80;8.90;;;;;;;18.08;15.90;101844.42;105304;1274;59430;-75
2022/03/22 12:53:38;;;;;;;16.70;10.10;;;;;;;17.91;16.15;101850.96;104784;1276;60877;-77
2022/03/22 12:56:30;;;;;;;18.60;10.00;;;;;;;17.64;16.23;101843.91;104848;1274;71444;-75
2022/03/22 12:59:40;;;;;;;18.60;9.50;;;;;;;17.33;16.61;101842.27;104871;1274;68160;-75
2022/03/22 13:02:28;;;;;;;18.70;9.20;;;;;;;17.21;16.92;101841.06;105202;1274;72965;-76
2022/03/22 13:05:26;;;;;;;18.00;9.70;;;;;;;17.18;16.96;101842.00;104867;1274;59422;-75
2022/03/22 13:11:42;;;;;;;19.80;10.30;;;;;;;17.00;16.99;101838.19;104876;1274;70967;-75
2022/03/22 13:17:48;;;;;;;20.70;9.80;;;;;;;16.83;17.10;101827.38;105143;1274;72733;-74
2022/03/22 13:20:40;;;;;;;17.40;10.00;;;;;;;16.76;17.40;101827.41;105055;1274;59292;-76
2022/03/22 13:23:30;;;;;;;20.70;10.00;;;;;;;16.76;17.67;101822.09;104999;1274;59738;-76
2022/03/22 13:26:18;;;;;;;19.00;9.70;;;;;;;16.79;17.46;101820.04;104872;1274;70492;-75
2022/03/22 13:29:16;;;;;;;18.30;10.10;;;;;;;16.82;17.24;101820.12;104553;1274;68179;-73
2022/03/22 13:32:10;;;;;;;19.90;9.70;;;;;;;16.78;17.00;101818.81;105430;1274;72980;-76
2022/03/22 13:35:04;;;;;;;19.60;10.30;;;;;;;16.63;17.21;101812.75;104993;1275;59315;-75
2022/03/22 13:37:53;;;;;;;18.50;10.20;;;;;;;16.60;17.26;101810.88;105161;1273;59319;-75
2022/03/22 13:40:44;;;;;;;19.60;10.00;;;;;;;16.58;17.75;101813.73;105107;1274;70917;-74
2022/03/22 13:43:45;;;;;;;21.10;10.20;;;;;;;16.51;17.27;101808.89;104999;1274;68342;-75